Country
Station

 

Weather  for  Elmira, Elmira/Corning Regional Airport  -  United States    United States

  
3 °C (37 °F)
    
 
 

Current METAR for Elmira, Elmira/Corning Regional Airport is :

KELM 192053Z 30014G24KT 4SM -SN BKN038 OVC046 03/M03 A2993 RMK AO2 PK WND 29027/2026 SLP145 P0000 60000 T00331028 53025

 

This is a report for Elmira, Elmira/Corning Regional Airport - United States.
 
The report was made 38 minutes ago, at 20:53 UTC .
The wind was blowing at a speed of 7.2 meters per second (16.1 miles per hour) with gusts up to 12.3 meters per second (27.6 miles per hour) from west/northwest (300°).
 
The temperature was 3 °C (37 °F), with a dew-point at -3 °C (27 °F).
The temperature felt like -3 °C (28 °F).
 
The atmospheric pressure was 1014 hPa (29.93 inHg).
The relative humidity was 64.6%.
 
There were broken clouds at a height of 1158 meters (3800 feet). The sky was overcast from a height of 1402 meter (4600 feet)
 
The overall visibility was 6.4 kilometers (4.0 miles).
 
Currently light snow.

 
 
 
 

Country :   A   B   C   D   E   F   G   H   I   J   K   L   M   N   O   P   Q   R   S   T   U   V   W   Y   Z

 

Site Info  |  Disclaimer  |  Credits  |  Privacy
Contact us  |  Add to favorites
© 2013-2018 METARs - All rights reserved